createdAt,value
2018-12-08T00:02:14.511Z,11.93
2018-12-08T00:04:43.194Z,17.57
2018-12-08T00:07:11.860Z,8.83
2018-12-08T00:09:40.911Z,12.30
2018-12-08T00:12:09.615Z,14.80
2018-12-08T00:14:38.230Z,15.83
2018-12-08T00:17:09.641Z,16.07
2018-12-08T00:19:38.300Z,9.77
2018-12-08T00:22:08.823Z,12.40
2018-12-08T00:24:38.067Z,11.10
2018-12-08T00:27:06.721Z,14.33
2018-12-08T00:29:35.327Z,13.23
2018-12-08T00:32:05.664Z,11.43
2018-12-08T00:34:34.253Z,10.50
2018-12-08T00:37:05.285Z,7.00
2018-12-08T00:39:33.898Z,12.77
2018-12-08T00:42:05.400Z,11.20
2018-12-08T00:44:34.162Z,11.90
2018-12-08T00:47:07.332Z,11.57
2018-12-08T00:49:35.980Z,10.87
2018-12-08T00:52:05.675Z,12.20
2018-12-08T00:54:34.291Z,14.40
2018-12-08T00:57:04.707Z,17.57
2018-12-08T00:59:33.298Z,11.60
2018-12-08T01:02:03.136Z,18.50
2018-12-08T01:04:31.860Z,13.83
2018-12-08T01:07:00.625Z,11.30
2018-12-08T01:09:29.268Z,13.43
2018-12-08T01:11:57.938Z,11.33
2018-12-08T01:14:27.374Z,9.30
2018-12-08T01:16:55.978Z,9.30
2018-12-08T01:19:24.600Z,7.97
2018-12-08T01:21:53.363Z,11.00
2018-12-08T01:24:29.026Z,10.40
2018-12-08T01:26:57.712Z,12.63
2018-12-08T01:29:26.411Z,16.03
2018-12-08T01:31:55.080Z,7.40
2018-12-08T01:34:23.755Z,10.13
2018-12-08T01:36:52.494Z,9.17
2018-12-08T01:39:23.364Z,7.97
2018-12-08T01:41:51.981Z,15.87
2018-12-08T01:44:20.791Z,14.13
2018-12-08T01:46:49.869Z,11.27
2018-12-08T01:49:18.504Z,7.87
2018-12-08T01:51:47.474Z,7.70
2018-12-08T01:54:16.143Z,9.13
2018-12-08T01:56:44.778Z,10.03
2018-12-08T01:59:13.485Z,13.03
2018-12-08T02:01:42.138Z,12.47
2018-12-08T02:04:10.855Z,15.30
2018-12-08T02:06:39.503Z,13.97
2018-12-08T02:09:08.733Z,10.90
2018-12-08T02:11:37.362Z,11.43
2018-12-08T02:14:06.482Z,14.50
2018-12-08T02:16:35.282Z,10.07
2018-12-08T02:19:05.298Z,11.07
2018-12-08T02:21:33.982Z,9.47
2018-12-08T02:24:04.182Z,11.97
2018-12-08T02:26:32.876Z,11.30
2018-12-08T02:29:02.893Z,12.77
2018-12-08T02:31:31.571Z,10.10
2018-12-08T02:34:00.254Z,13.03
2018-12-08T02:36:28.978Z,12.10
2018-12-08T02:38:57.664Z,18.80
2018-12-08T02:41:26.347Z,14.30
2018-12-08T02:43:55.049Z,15.03
2018-12-08T02:46:23.740Z,9.07
2018-12-08T02:48:52.407Z,10.90
2018-12-08T02:51:21.047Z,15.97
2018-12-08T02:53:49.674Z,16.17
2018-12-08T02:56:18.427Z,8.07
2018-12-08T02:58:47.440Z,10.57
2018-12-08T03:01:16.112Z,10.50
2018-12-08T03:03:44.764Z,12.97
2018-12-08T03:06:13.445Z,13.43
2018-12-08T03:08:42.240Z,18.60
2018-12-08T03:11:10.933Z,13.80
2018-12-08T03:13:39.603Z,17.17
2018-12-08T03:16:08.203Z,13.53
2018-12-08T03:18:36.867Z,11.97
2018-12-08T03:21:05.778Z,8.73
2018-12-08T03:23:35.095Z,17.67
2018-12-08T03:26:05.756Z,14.43
2018-12-08T03:28:34.392Z,12.27
2018-12-08T03:31:06.076Z,13.93
2018-12-08T03:33:34.728Z,15.30
2018-12-08T03:36:04.971Z,13.90
2018-12-08T03:38:33.563Z,11.67
2018-12-08T03:41:04.905Z,15.63
2018-12-08T03:43:33.535Z,10.40
2018-12-08T03:46:04.121Z,13.40
2018-12-08T03:48:32.739Z,12.53
2018-12-08T03:51:04.162Z,11.90
2018-12-08T03:53:32.781Z,11.70
2018-12-08T03:56:02.860Z,10.33
2018-12-08T03:58:31.481Z,17.33
2018-12-08T04:01:00.081Z,11.80
2018-12-08T04:03:28.689Z,12.40
2018-12-08T04:05:57.328Z,12.57
2018-12-08T04:08:26.317Z,17.87
2018-12-08T04:10:54.926Z,12.43
2018-12-08T04:13:24.113Z,15.87
2018-12-08T04:15:53.114Z,11.23
2018-12-08T04:18:21.734Z,10.07
2018-12-08T04:20:50.361Z,8.63
2018-12-08T04:23:19.011Z,15.40
2018-12-08T04:25:47.679Z,12.87
2018-12-08T04:28:16.371Z,14.03
2018-12-08T04:30:45.452Z,12.73
2018-12-08T04:33:14.151Z,13.33
2018-12-08T04:35:43.124Z,12.83
2018-12-08T04:38:11.717Z,15.03
2018-12-08T04:40:40.903Z,15.10
2018-12-08T04:43:09.568Z,11.47
2018-12-08T04:45:38.260Z,14.30
2018-12-08T04:48:06.916Z,19.53
2018-12-08T04:50:35.510Z,9.87
2018-12-08T04:53:05.522Z,17.67
2018-12-08T04:55:34.111Z,16.70
2018-12-08T04:58:03.453Z,14.47
2018-12-08T05:00:32.133Z,12.37
2018-12-08T05:03:03.235Z,15.27
2018-12-08T05:05:32.215Z,16.20
2018-12-08T05:08:00.841Z,13.57
2018-12-08T05:10:29.735Z,13.73
2018-12-08T05:12:58.336Z,13.20
2018-12-08T05:15:26.911Z,12.07
2018-12-08T05:17:55.553Z,19.63
2018-12-08T05:20:24.188Z,14.17
2018-12-08T05:22:52.812Z,17.80
2018-12-08T05:25:21.499Z,17.63
2018-12-08T05:27:50.140Z,15.33
2018-12-08T05:30:18.739Z,14.00
2018-12-08T05:32:47.457Z,16.27
2018-12-08T05:35:16.129Z,13.13
2018-12-08T05:37:44.706Z,17.73
2018-12-08T05:40:13.534Z,13.53
2018-12-08T05:42:42.154Z,12.73
2018-12-08T05:45:10.776Z,13.17
2018-12-08T05:47:39.410Z,21.90
2018-12-08T05:50:08.928Z,16.87
2018-12-08T05:52:37.592Z,13.37
2018-12-08T05:55:06.551Z,13.10
2018-12-08T05:57:35.141Z,17.27
2018-12-08T06:00:06.786Z,20.50
2018-12-08T06:02:35.475Z,21.83
2018-12-08T06:05:07.062Z,14.90
2018-12-08T06:07:36.349Z,18.47
2018-12-08T06:10:06.214Z,13.00
2018-12-08T06:12:34.844Z,20.53
2018-12-08T06:15:04.552Z,14.00
2018-12-08T06:17:33.179Z,15.93
2018-12-08T06:20:03.143Z,25.47
2018-12-08T06:22:31.849Z,14.53
2018-12-08T06:25:00.694Z,13.60
2018-12-08T06:27:38.126Z,17.67
2018-12-08T06:30:08.264Z,21.50
2018-12-08T06:32:36.878Z,20.63
2018-12-08T06:35:05.630Z,20.50
2018-12-08T06:37:38.179Z,14.83
2018-12-08T06:40:06.898Z,19.30
2018-12-08T06:42:35.496Z,15.83
2018-12-08T06:45:06.161Z,22.40
2018-12-08T06:47:34.859Z,20.10
2018-12-08T06:50:05.422Z,15.93
2018-12-08T06:52:34.066Z,18.47
2018-12-08T06:55:03.810Z,15.53
2018-12-08T06:57:32.577Z,14.93
2018-12-08T07:00:04.003Z,22.40
2018-12-08T07:02:32.661Z,17.33
2018-12-08T07:05:04.372Z,18.17
2018-12-08T07:07:32.965Z,13.90
2018-12-08T07:10:03.106Z,17.33
2018-12-08T07:12:31.969Z,20.00
2018-12-08T07:15:00.601Z,22.47
2018-12-08T07:17:32.159Z,23.63
2018-12-08T07:20:00.796Z,19.07
2018-12-08T07:22:29.419Z,21.83
2018-12-08T07:24:58.031Z,17.37
2018-12-08T07:27:26.669Z,19.07
2018-12-08T07:29:55.271Z,18.10
2018-12-08T07:32:23.978Z,15.17
2018-12-08T07:34:52.619Z,19.47
2018-12-08T07:37:21.277Z,18.47
2018-12-08T07:39:49.863Z,10.03
2018-12-08T07:42:18.457Z,23.47
2018-12-08T07:44:48.254Z,16.03
2018-12-08T07:47:17.157Z,17.47
2018-12-08T07:49:45.804Z,18.40
2018-12-08T07:52:14.426Z,19.17
2018-12-08T07:54:43.036Z,16.27
2018-12-08T07:57:12.105Z,17.33
2018-12-08T07:59:40.717Z,18.10
2018-12-08T08:02:09.373Z,12.10
2018-12-08T08:04:38.013Z,15.23
2018-12-08T08:07:06.609Z,20.13
2018-12-08T08:09:35.287Z,17.60
2018-12-08T08:12:05.663Z,10.73
2018-12-08T08:14:34.314Z,14.97
2018-12-08T08:17:04.831Z,11.10
2018-12-08T08:19:33.404Z,12.27
2018-12-08T08:22:03.464Z,10.90
2018-12-08T08:24:32.053Z,13.20
2018-12-08T08:27:00.646Z,16.60
2018-12-08T08:29:29.792Z,16.97
2018-12-08T08:31:58.701Z,17.40
2018-12-08T08:34:27.289Z,19.83
2018-12-08T08:36:55.872Z,12.17
2018-12-08T08:39:24.567Z,16.40
2018-12-08T08:41:53.167Z,18.93
2018-12-08T08:44:21.898Z,16.00
2018-12-08T08:46:50.905Z,16.43
2018-12-08T08:49:19.639Z,15.03
2018-12-08T08:51:48.222Z,16.53
2018-12-08T08:54:16.824Z,15.77
2018-12-08T08:56:45.410Z,17.83
2018-12-08T08:59:14.470Z,15.07
2018-12-08T09:01:43.419Z,11.33
2018-12-08T09:04:12.007Z,10.67
2018-12-08T09:06:40.717Z,12.23
2018-12-08T09:09:09.405Z,10.90
2018-12-08T09:11:38.011Z,15.73
2018-12-08T09:14:13.180Z,11.07
2018-12-08T09:16:38.124Z,13.90
2018-12-08T09:19:06.873Z,12.53
2018-12-08T09:21:35.629Z,16.37
2018-12-08T09:24:06.101Z,11.27
2018-12-08T09:26:34.904Z,14.27
2018-12-08T09:29:13.414Z,9.80
2018-12-08T09:31:42.322Z,11.83
2018-12-08T09:34:10.930Z,9.57
2018-12-08T09:36:39.533Z,10.10
2018-12-08T09:39:08.899Z,14.20
2018-12-08T09:41:38.696Z,10.90
2018-12-08T09:44:07.797Z,12.17
2018-12-08T09:46:36.405Z,8.13
2018-12-08T09:49:05.773Z,9.53
2018-12-08T09:51:34.443Z,13.10
2018-12-08T09:54:05.049Z,10.93
2018-12-08T09:56:33.667Z,9.77
2018-12-08T09:59:04.649Z,12.17
2018-12-08T10:01:33.422Z,13.23
2018-12-08T10:04:03.715Z,12.17
2018-12-08T10:06:32.344Z,11.47
2018-12-08T10:09:02.787Z,13.60
2018-12-08T10:11:31.801Z,18.47
2018-12-08T10:14:00.735Z,14.80
2018-12-08T10:16:29.398Z,11.67
2018-12-08T10:18:58.044Z,12.47
2018-12-08T10:21:26.641Z,13.80
2018-12-08T10:23:55.223Z,11.87
2018-12-08T10:26:23.868Z,11.77
2018-12-08T10:28:52.518Z,15.40
2018-12-08T10:31:21.116Z,16.40
2018-12-08T10:33:51.709Z,13.53
2018-12-08T10:36:20.317Z,14.67
2018-12-08T10:38:49.045Z,14.77
2018-12-08T10:41:17.753Z,12.60
2018-12-08T10:43:46.382Z,12.93
2018-12-08T10:46:15.007Z,18.23
2018-12-08T10:48:43.984Z,16.93
2018-12-08T10:51:12.829Z,13.63
2018-12-08T10:53:41.446Z,12.67
2018-12-08T10:56:10.060Z,18.40
2018-12-08T10:58:38.954Z,20.63
2018-12-08T11:01:11.694Z,18.90
2018-12-08T11:03:48.873Z,19.30
2018-12-08T11:06:17.504Z,20.77
2018-12-08T11:08:46.212Z,16.00
2018-12-08T11:11:14.869Z,12.03
2018-12-08T11:13:43.477Z,17.27
2018-12-08T11:16:12.233Z,17.63
2018-12-08T11:18:40.924Z,13.83
2018-12-08T11:21:09.632Z,19.40
2018-12-08T11:23:38.455Z,18.83
2018-12-08T11:26:07.234Z,17.27
2018-12-08T11:28:35.963Z,25.37
2018-12-08T11:31:05.454Z,20.10
2018-12-08T11:33:34.059Z,20.20
2018-12-08T11:36:04.424Z,20.00
2018-12-08T11:38:33.037Z,16.90
2018-12-08T11:41:02.772Z,18.47
2018-12-08T11:43:31.395Z,12.23
2018-12-08T11:46:00.072Z,16.87
2018-12-08T11:48:28.860Z,24.47
2018-12-08T11:50:57.713Z,19.57
2018-12-08T11:53:26.445Z,17.53
2018-12-08T11:55:55.067Z,17.60
2018-12-08T11:58:23.791Z,12.53
2018-12-08T12:00:52.423Z,16.80
2018-12-08T12:03:21.052Z,21.17
2018-12-08T12:05:50.068Z,22.37
2018-12-08T12:08:18.753Z,19.40
2018-12-08T12:10:47.565Z,14.83
2018-12-08T12:13:16.243Z,19.33
2018-12-08T12:15:44.950Z,20.37
2018-12-08T12:18:19.925Z,18.80
2018-12-08T12:20:48.521Z,16.73
2018-12-08T12:23:17.170Z,20.20
2018-12-08T12:25:46.037Z,11.37
2018-12-08T12:28:14.635Z,18.67
2018-12-08T12:30:43.881Z,16.63
2018-12-08T12:33:12.499Z,16.93
2018-12-08T12:35:41.170Z,20.73
2018-12-08T12:38:09.789Z,12.27
2018-12-08T12:40:38.466Z,15.47
2018-12-08T12:43:07.071Z,14.37
2018-12-08T12:45:35.986Z,11.60
2018-12-08T12:48:05.744Z,16.27
2018-12-08T12:50:34.382Z,17.73
2018-12-08T12:53:04.759Z,14.17
2018-12-08T12:55:33.390Z,18.47
2018-12-08T12:58:02.904Z,17.20
2018-12-08T13:00:31.793Z,19.37
2018-12-08T13:03:00.484Z,19.27
2018-12-08T13:05:29.093Z,16.83
2018-12-08T13:07:57.779Z,18.33
2018-12-08T13:10:26.396Z,14.77
2018-12-08T13:12:55.045Z,17.03
2018-12-08T13:15:23.675Z,17.20
2018-12-08T13:17:52.305Z,14.23
2018-12-08T13:20:20.939Z,17.33
2018-12-08T13:22:50.721Z,19.00
2018-12-08T13:25:22.275Z,10.20
2018-12-08T13:27:50.880Z,11.70
2018-12-08T13:30:19.545Z,16.03
2018-12-08T13:32:48.248Z,10.43
2018-12-08T13:35:56.240Z,13.73
2018-12-08T13:38:24.984Z,13.93
2018-12-08T13:40:53.707Z,14.87
2018-12-08T13:43:22.338Z,16.43
2018-12-08T13:45:50.961Z,11.17
2018-12-08T13:48:21.698Z,15.53
2018-12-08T13:50:50.637Z,8.13
2018-12-08T13:53:19.322Z,13.77
2018-12-08T13:55:47.977Z,21.87
2018-12-08T13:58:16.649Z,14.00
2018-12-08T14:00:45.263Z,15.40
2018-12-08T14:03:13.910Z,16.70
2018-12-08T14:05:42.551Z,19.63
2018-12-08T14:08:11.348Z,10.07
2018-12-08T14:10:41.846Z,15.90
2018-12-08T14:13:10.479Z,19.30
2018-12-08T14:15:39.210Z,11.80
2018-12-08T14:18:07.982Z,12.50
2018-12-08T14:20:36.719Z,19.37
2018-12-08T14:23:05.916Z,14.27
2018-12-08T14:25:34.546Z,14.20
2018-12-08T14:28:05.071Z,14.40
2018-12-08T14:30:33.679Z,15.40
2018-12-08T14:33:03.819Z,13.83
2018-12-08T14:35:32.831Z,12.90
2018-12-08T14:38:02.835Z,8.53
2018-12-08T14:40:31.478Z,11.77
2018-12-08T14:43:00.147Z,18.57
2018-12-08T14:45:28.766Z,14.33
2018-12-08T14:47:57.399Z,11.77
2018-12-08T14:50:26.046Z,10.17
2018-12-08T14:52:54.711Z,9.33
2018-12-08T14:55:23.320Z,15.60
2018-12-08T14:57:52.145Z,16.17
2018-12-08T15:00:20.782Z,16.27
2018-12-08T15:02:49.474Z,13.93
2018-12-08T15:05:18.153Z,11.30
2018-12-08T15:07:46.780Z,14.00
2018-12-08T15:10:15.422Z,18.63
2018-12-08T15:12:44.082Z,14.37
2018-12-08T15:15:12.695Z,12.20
2018-12-08T15:17:41.382Z,10.27
2018-12-08T15:20:12.234Z,12.10
2018-12-08T15:22:40.903Z,13.80
2018-12-08T15:25:10.439Z,13.27
2018-12-08T15:27:39.298Z,16.07
2018-12-08T15:30:10.088Z,11.13
2018-12-08T15:32:38.804Z,11.13
2018-12-08T15:35:10.032Z,9.93
2018-12-08T15:37:42.761Z,13.13
2018-12-08T15:40:11.672Z,18.57
2018-12-08T15:42:40.830Z,10.50
2018-12-08T15:45:11.546Z,13.73
2018-12-08T15:47:40.215Z,10.10
2018-12-08T15:50:10.787Z,14.33
2018-12-08T15:52:39.418Z,9.40
2018-12-08T15:55:08.374Z,16.80
2018-12-08T15:57:38.421Z,12.03
2018-12-08T16:00:09.894Z,14.37
2018-12-08T16:02:38.693Z,11.90
2018-12-08T16:05:07.767Z,12.63
2018-12-08T16:07:36.624Z,11.13
2018-12-08T16:10:07.038Z,14.47
2018-12-08T16:12:35.915Z,13.57
2018-12-08T16:15:06.890Z,14.63
2018-12-08T16:17:37.799Z,13.73
2018-12-08T16:20:09.941Z,11.73
2018-12-08T16:22:39.490Z,10.50
2018-12-08T16:25:08.235Z,10.40
2018-12-08T16:27:37.524Z,11.73
2018-12-08T16:30:07.806Z,12.53
2018-12-08T16:32:36.455Z,11.77
2018-12-08T16:35:05.562Z,9.60
2018-12-08T16:37:34.210Z,13.70
2018-12-08T16:40:06.613Z,15.10
2018-12-08T16:42:35.308Z,16.37
2018-12-08T16:45:07.873Z,15.37
2018-12-08T16:47:36.680Z,16.17
2018-12-08T16:50:06.427Z,10.73
2018-12-08T16:52:35.565Z,21.87
2018-12-08T16:55:05.862Z,17.40
2018-12-08T16:57:34.680Z,15.37
2018-12-08T17:00:05.496Z,13.20
2018-12-08T17:02:34.129Z,20.03
2018-12-08T17:05:05.028Z,21.77
2018-12-08T17:07:33.828Z,16.77
2018-12-08T17:10:04.945Z,14.40
2018-12-08T17:12:33.582Z,21.50
2018-12-08T17:15:03.743Z,23.97
2018-12-08T17:17:35.485Z,17.77
2018-12-08T17:20:05.749Z,22.13
2018-12-08T17:22:34.623Z,23.40
2018-12-08T17:25:05.278Z,26.23
2018-12-08T17:27:33.888Z,17.57
2018-12-08T17:30:03.140Z,19.80
2018-12-08T17:32:32.202Z,24.27
2018-12-08T17:35:03.127Z,23.23
2018-12-08T17:37:31.768Z,22.47
2018-12-08T17:40:00.406Z,29.80
2018-12-08T17:42:29.160Z,23.27
2018-12-08T17:44:57.870Z,18.23
2018-12-08T17:47:26.538Z,24.00
2018-12-08T17:49:55.178Z,17.70
2018-12-08T17:52:24.007Z,24.00
2018-12-08T17:54:52.588Z,21.13
2018-12-08T17:57:21.225Z,29.00
2018-12-08T17:59:49.865Z,24.40
2018-12-08T18:02:18.548Z,31.17
2018-12-08T18:04:47.373Z,28.87
2018-12-08T18:07:16.024Z,24.77
2018-12-08T18:09:44.800Z,26.83
2018-12-08T18:12:13.469Z,25.20
2018-12-08T18:14:42.163Z,21.37
2018-12-08T18:17:10.824Z,17.77
2018-12-08T18:19:39.660Z,25.57
2018-12-08T18:22:08.525Z,23.57
2018-12-08T18:24:37.286Z,21.23
2018-12-08T18:27:06.447Z,16.50
2018-12-08T18:29:35.078Z,25.90
2018-12-08T18:32:05.538Z,22.17
2018-12-08T18:34:34.194Z,20.17
2018-12-08T18:37:03.864Z,20.07
2018-12-08T18:39:32.522Z,24.33
2018-12-08T18:42:03.524Z,16.33
2018-12-08T18:44:32.173Z,17.40
2018-12-08T18:47:00.830Z,20.27
2018-12-08T18:49:29.497Z,17.27
2018-12-08T18:51:58.191Z,24.57
2018-12-08T18:54:26.835Z,20.50
2018-12-08T18:56:55.531Z,16.87
2018-12-08T18:59:24.280Z,16.53
2018-12-08T19:01:53.326Z,22.67
2018-12-08T19:04:22.028Z,12.70
2018-12-08T19:06:50.634Z,16.90
2018-12-08T19:09:19.544Z,19.87
2018-12-08T19:11:48.193Z,18.30
2018-12-08T19:14:16.813Z,15.30
2018-12-08T19:16:45.666Z,14.07
2018-12-08T19:19:14.314Z,15.27
2018-12-08T19:21:42.965Z,14.27
2018-12-08T19:24:11.652Z,12.47
2018-12-08T19:26:40.307Z,12.33
2018-12-08T19:29:08.999Z,14.07
2018-12-08T19:31:37.784Z,10.60
2018-12-08T19:34:06.481Z,11.83
2018-12-08T19:36:35.706Z,12.03
2018-12-08T19:39:10.563Z,13.33
2018-12-08T19:41:39.434Z,8.30
2018-12-08T19:44:08.088Z,9.83
2018-12-08T19:46:36.936Z,13.17
2018-12-08T19:49:05.649Z,9.63
2018-12-08T19:51:34.344Z,8.83
2018-12-08T19:54:04.603Z,10.13
2018-12-08T19:56:33.619Z,10.70
2018-12-08T19:59:04.222Z,8.93
2018-12-08T20:01:32.864Z,8.53
2018-12-08T20:04:03.014Z,9.13
2018-12-08T20:06:31.987Z,8.03
2018-12-08T20:09:02.298Z,6.97
2018-12-08T20:11:31.931Z,6.57
2018-12-08T20:14:00.719Z,7.33
2018-12-08T20:16:29.386Z,7.57
2018-12-08T20:18:58.128Z,6.30
2018-12-08T20:21:26.770Z,6.03
2018-12-08T20:23:55.415Z,5.63
2018-12-08T20:26:24.100Z,5.27
2018-12-08T20:28:52.764Z,4.70
2018-12-08T20:31:21.405Z,5.53
2018-12-08T20:33:50.083Z,4.43
2018-12-08T20:36:18.806Z,4.60
2018-12-08T20:38:47.470Z,3.97
2018-12-08T20:41:16.416Z,4.07
2018-12-08T20:43:45.341Z,4.37
2018-12-08T20:46:13.978Z,5.20
2018-12-08T20:48:53.470Z,6.33
2018-12-08T20:51:22.165Z,5.57
2018-12-08T20:53:50.831Z,4.90
2018-12-08T20:56:19.598Z,4.40
2018-12-08T20:58:48.266Z,5.50
2018-12-08T21:01:20.025Z,4.53
2018-12-08T21:03:48.732Z,5.17
2018-12-08T21:06:17.421Z,5.63
2018-12-08T21:08:46.126Z,5.77
2018-12-08T21:11:14.806Z,8.57
2018-12-08T21:13:43.507Z,5.37
2018-12-08T21:16:12.216Z,4.93
2018-12-08T21:18:40.894Z,6.83
2018-12-08T21:21:10.554Z,4.57
2018-12-08T21:23:39.322Z,6.43
2018-12-08T21:26:08.072Z,5.00
2018-12-08T21:28:36.757Z,11.20
2018-12-08T21:31:05.435Z,5.97
2018-12-08T21:33:34.067Z,7.63
2018-12-08T21:36:04.169Z,8.77
2018-12-08T21:38:32.988Z,4.63
2018-12-08T21:41:02.791Z,9.67
2018-12-08T21:43:31.412Z,7.53
2018-12-08T21:46:00.088Z,8.27
2018-12-08T21:48:28.803Z,6.77
2018-12-08T21:50:58.684Z,8.13
2018-12-08T21:53:27.362Z,10.33
2018-12-08T21:56:00.868Z,6.73
2018-12-08T21:58:32.678Z,7.10
2018-12-08T22:01:02.897Z,4.53
2018-12-08T22:03:31.514Z,7.87
2018-12-08T22:06:00.128Z,5.73
2018-12-08T22:08:32.028Z,8.47
2018-12-08T22:11:00.784Z,7.80
2018-12-08T22:13:30.992Z,11.40
2018-12-08T22:16:00.187Z,9.80
2018-12-08T22:18:29.750Z,10.47
2018-12-08T22:21:00.753Z,7.87
2018-12-08T22:23:29.481Z,8.20
2018-12-08T22:26:03.926Z,7.93
2018-12-08T22:28:33.748Z,9.87
2018-12-08T22:31:04.232Z,7.13
2018-12-08T22:33:32.971Z,13.30
2018-12-08T22:36:02.781Z,7.50
2018-12-08T22:38:31.426Z,4.17
2018-12-08T22:41:06.946Z,3.87
2018-12-08T22:43:40.386Z,4.20
2018-12-08T22:46:09.014Z,4.00
2018-12-08T22:48:37.662Z,3.63
2018-12-08T22:51:11.577Z,4.07
2018-12-08T22:53:43.632Z,2.87
2018-12-08T22:56:12.256Z,4.97
2018-12-08T22:58:44.098Z,5.33
2018-12-08T23:01:12.733Z,6.10
2018-12-08T23:03:41.378Z,4.77
2018-12-08T23:06:09.992Z,3.23
2018-12-08T23:08:38.615Z,4.17
2018-12-08T23:11:07.315Z,3.13
2018-12-08T23:13:35.973Z,5.00
2018-12-08T23:16:05.205Z,4.27
2018-12-08T23:18:33.798Z,4.57
2018-12-08T23:21:04.257Z,3.30
2018-12-08T23:23:32.830Z,3.37
2018-12-08T23:26:08.002Z,3.13
2018-12-08T23:28:36.752Z,6.10
2018-12-08T23:31:10.867Z,6.57
2018-12-08T23:33:43.446Z,7.37
2018-12-08T23:36:12.993Z,7.60
2018-12-08T23:38:41.591Z,7.10
2018-12-08T23:41:16.044Z,15.80
2018-12-08T23:43:44.771Z,7.53
2018-12-08T23:46:13.663Z,8.07
2018-12-08T23:48:44.343Z,6.83
2018-12-08T23:51:12.928Z,10.60
2018-12-08T23:53:41.565Z,10.90
2018-12-08T23:56:10.150Z,15.23
2018-12-08T23:58:38.940Z,12.07
